Time;durP1;ratioP1;P1;durP2;ratioP2;P2;SDS_P1;SDS_P2;PMS_P1;PMS_P2;Temp;Humidity;BMP_temperature;BMP_pressure;BME280_temperature;BME280_humidity;BME280_pressure;Samples;Min_cycle;Max_cycle;Signal;HPM_P1;HPM_P2
2023/07/27 03:00:39;;;;;;;1.50;1.00;;;24.20;46.30;;;;;;6056329;23;46428;31
2023/07/27 03:03:05;;;;;;;1.65;0.95;;;24.10;46.20;;;;;;4902285;28;45422;-83
2023/07/27 03:05:30;;;;;;;1.17;1.07;;;24.10;46.30;;;;;;4897742;28;45223;-84
2023/07/27 03:07:56;;;;;;;1.23;1.00;;;24.10;46.20;;;;;;4925550;28;45265;-81
2023/07/27 03:10:22;;;;;;;1.15;1.00;;;24.10;46.20;;;;;;4920350;28;45898;-80
2023/07/27 03:12:49;;;;;;;1.42;1.27;;;24.20;46.30;;;;;;4945705;28;45527;-81
2023/07/27 03:15:14;;;;;;;1.33;1.00;;;24.10;46.20;;;;;;4933843;28;45223;-84
2023/07/27 03:17:40;;;;;;;1.33;1.00;;;24.10;46.20;;;;;;4916131;28;45464;-81
2023/07/27 03:20:06;;;;;;;1.33;1.00;;;24.10;46.20;;;;;;4933674;28;47531;-83
2023/07/27 03:22:32;;;;;;;0.90;0.80;;;24.10;46.20;;;;;;4932625;28;44703;-82
2023/07/27 03:24:58;;;;;;;2.00;1.05;;;24.20;46.30;;;;;;4916578;28;45135;-81
2023/07/27 03:27:23;;;;;;;1.93;1.20;;;24.10;46.80;;;;;;4944984;28;45995;-82
2023/07/27 03:29:49;;;;;;;1.40;1.00;;;24.20;46.20;;;;;;4936304;28;45495;-82
2023/07/27 03:32:14;;;;;;;1.00;0.90;;;24.10;46.20;;;;;;4927440;28;45685;-82
2023/07/27 03:34:40;;;;;;;1.02;0.93;;;24.20;46.20;;;;;;4918355;28;45703;-82
2023/07/27 03:37:05;;;;;;;1.08;0.88;;;24.20;46.20;;;;;;4928408;28;45034;-83
2023/07/27 03:39:31;;;;;;;1.20;1.10;;;24.10;46.20;;;;;;4902972;28;47260;-82
2023/07/27 03:41:57;;;;;;;1.20;1.00;;;24.10;46.20;;;;;;4932353;28;45141;-81
2023/07/27 03:44:22;;;;;;;1.05;0.95;;;24.10;46.20;;;;;;4937405;28;45453;-82
2023/07/27 03:46:48;;;;;;;1.60;1.02;;;24.10;46.20;;;;;;4916992;28;45138;-82
2023/07/27 03:49:13;;;;;;;1.35;0.90;;;24.10;46.20;;;;;;4920542;28;46959;-81
2023/07/27 03:51:39;;;;;;;1.77;1.25;;;24.10;46.20;;;;;;4915864;28;45008;-83
2023/07/27 03:54:05;;;;;;;1.30;1.20;;;24.10;46.60;;;;;;4925904;28;44925;-82
2023/07/27 03:56:30;;;;;;;1.77;1.20;;;24.10;46.20;;;;;;4935859;28;45129;-81
2023/07/27 03:58:56;;;;;;;1.10;1.00;;;24.20;46.20;;;;;;4906013;28;46611;-81
2023/07/27 04:01:21;;;;;;;1.10;0.90;;;24.10;46.10;;;;;;4932134;28;45910;-86
2023/07/27 04:03:47;;;;;;;1.30;1.00;;;24.10;46.10;;;;;;4924546;28;45474;-81
2023/07/27 04:06:12;;;;;;;1.67;1.25;;;24.10;46.10;;;;;;4922041;28;45404;-80
2023/07/27 04:08:38;;;;;;;1.70;1.20;;;24.10;46.10;;;;;;4941348;28;44995;-85
2023/07/27 04:11:04;;;;;;;2.10;1.40;;;24.10;46.10;;;;;;4935775;28;45521;-81
2023/07/27 04:13:29;;;;;;;2.70;1.00;;;24.10;46.10;;;;;;4939008;28;44942;-81
2023/07/27 04:15:55;;;;;;;1.30;1.10;;;24.10;46.10;;;;;;4916328;28;45483;-82
2023/07/27 04:18:20;;;;;;;1.80;1.30;;;24.10;46.10;;;;;;4919546;28;45472;-82
2023/07/27 04:20:46;;;;;;;1.40;1.20;;;24.10;46.10;;;;;;4941347;28;45426;-82
2023/07/27 04:23:11;;;;;;;1.30;1.03;;;24.10;46.10;;;;;;4935516;28;45279;-80
2023/07/27 04:25:37;;;;;;;1.20;1.00;;;24.10;46.10;;;;;;4933039;28;45015;-81
2023/07/27 04:28:03;;;;;;;1.20;1.10;;;24.10;46.10;;;;;;4919985;28;46985;-81
2023/07/27 04:30:28;;;;;;;1.13;1.00;;;24.10;46.10;;;;;;4914877;28;45073;-84
2023/07/27 04:32:54;;;;;;;1.10;1.00;;;24.10;46.10;;;;;;4922117;28;45342;-82
2023/07/27 04:35:19;;;;;;;1.60;1.10;;;24.10;46.10;;;;;;4902286;28;44711;-84
2023/07/27 04:37:45;;;;;;;1.23;1.13;;;24.10;46.10;;;;;;4918958;28;47458;-80
2023/07/27 04:40:11;;;;;;;1.30;1.20;;;24.10;46.10;;;;;;4918257;28;45025;-82
2023/07/27 04:42:36;;;;;;;1.55;1.00;;;24.10;46.10;;;;;;4933659;28;44847;-81
2023/07/27 04:45:05;;;;;;;1.77;1.10;;;24.10;46.10;;;;;;4916632;28;45415;-85
2023/07/27 04:47:30;;;;;;;1.60;1.27;;;24.10;46.10;;;;;;4911272;28;45741;-83
2023/07/27 04:49:56;;;;;;;1.33;1.10;;;24.10;46.10;;;;;;4934005;28;45874;-81
2023/07/27 04:52:22;;;;;;;1.40;1.10;;;24.10;46.10;;;;;;4914963;28;45631;-82
2023/07/27 04:54:47;;;;;;;1.83;1.10;;;24.10;46.10;;;;;;4934150;28;46371;-83
2023/07/27 04:57:13;;;;;;;1.98;1.20;;;24.10;46.10;;;;;;4935183;28;45789;-83
2023/07/27 04:59:38;;;;;;;1.80;1.40;;;24.10;46.10;;;;;;4919843;28;45294;-82
2023/07/27 05:02:04;;;;;;;1.45;1.05;;;24.10;46.10;;;;;;4928254;28;45403;-82
2023/07/27 05:04:30;;;;;;;1.23;1.10;;;24.00;46.70;;;;;;4930796;28;46306;-80
2023/07/27 05:06:55;;;;;;;1.30;1.20;;;24.10;46.10;;;;;;4946835;28;47963;-81
2023/07/27 05:09:21;;;;;;;1.70;1.20;;;24.10;46.10;;;;;;4915372;28;45089;-83
2023/07/27 05:11:47;;;;;;;1.40;1.20;;;24.00;46.10;;;;;;4918549;28;45364;-83
2023/07/27 05:14:12;;;;;;;2.07;1.10;;;24.00;46.10;;;;;;4916759;28;47212;-81
2023/07/27 05:16:38;;;;;;;1.70;1.10;;;24.10;46.10;;;;;;4897495;28;47055;-82
2023/07/27 05:19:03;;;;;;;1.30;1.13;;;24.10;46.20;;;;;;4920469;28;45131;-79
2023/07/27 05:21:29;;;;;;;1.40;1.10;;;24.10;46.10;;;;;;4913832;28;47742;-84
2023/07/27 05:23:55;;;;;;;1.90;1.40;;;24.10;46.10;;;;;;4934143;28;45735;-81
2023/07/27 05:26:20;;;;;;;2.00;1.30;;;24.00;46.10;;;;;;4912660;28;45039;-84
2023/07/27 05:28:46;;;;;;;1.40;1.30;;;24.00;46.10;;;;;;4899930;28;45487;-81
2023/07/27 05:31:11;;;;;;;1.90;1.20;;;24.00;46.70;;;;;;4897280;28;45571;-82
2023/07/27 05:33:37;;;;;;;1.63;1.10;;;24.00;46.10;;;;;;4919716;28;45199;-82
2023/07/27 05:36:02;;;;;;;1.25;1.00;;;24.10;46.10;;;;;;4928563;28;45953;-81
2023/07/27 05:38:28;;;;;;;1.38;1.27;;;24.00;46.10;;;;;;4932067;28;46437;-87
2023/07/27 05:41:01;;;;;;;1.50;1.20;;;24.10;46.10;;;;;;4916766;28;45484;-80
2023/07/27 05:43:27;;;;;;;2.67;1.20;;;24.00;46.20;;;;;;4935047;28;45427;-81
2023/07/27 05:45:52;;;;;;;1.35;1.20;;;24.00;46.10;;;;;;4912310;28;45346;-82
2023/07/27 05:48:18;;;;;;;1.27;1.00;;;24.00;46.10;;;;;;4929590;28;45382;-82
2023/07/27 05:50:43;;;;;;;2.50;1.50;;;24.00;46.10;;;;;;4884359;28;46358;-84
2023/07/27 05:53:09;;;;;;;1.60;1.20;;;24.00;46.10;;;;;;4917042;28;45120;-82
2023/07/27 05:55:34;;;;;;;1.50;1.20;;;24.00;46.10;;;;;;4902595;28;45888;-81
2023/07/27 05:58:00;;;;;;;1.48;1.30;;;24.00;46.20;;;;;;4919144;28;45208;-83
2023/07/27 06:00:26;;;;;;;2.10;1.30;;;24.00;46.20;;;;;;4927295;28;45505;-81
2023/07/27 06:02:54;;;;;;;1.10;1.00;;;24.00;46.10;;;;;;4914362;28;44837;-80
2023/07/27 06:05:20;;;;;;;1.30;1.20;;;24.00;46.10;;;;;;4928356;28;47363;-83
2023/07/27 06:07:45;;;;;;;1.23;1.13;;;24.00;46.10;;;;;;4909906;28;44802;-80
2023/07/27 06:10:11;;;;;;;1.25;1.15;;;24.00;46.20;;;;;;4928393;28;45339;-82
2023/07/27 06:12:37;;;;;;;1.10;1.00;;;24.00;46.20;;;;;;4931415;28;45095;-81
2023/07/27 06:15:12;;;;;;;2.00;1.15;;;24.00;46.20;;;;;;4929119;28;47373;-87
2023/07/27 06:17:37;;;;;;;1.35;1.25;;;24.00;46.20;;;;;;4928347;28;45312;-81
2023/07/27 06:20:08;;;;;;;1.37;1.07;;;24.00;46.20;;;;;;4917711;28;45728;-82
2023/07/27 06:22:34;;;;;;;1.73;1.20;;;24.00;46.20;;;;;;4933186;28;45195;-82
2023/07/27 06:25:00;;;;;;;1.90;1.20;;;24.00;46.20;;;;;;4922804;28;46892;-81
2023/07/27 06:27:25;;;;;;;1.30;1.20;;;24.00;46.20;;;;;;4932006;28;45539;-81
2023/07/27 06:29:51;;;;;;;1.50;1.20;;;24.00;46.20;;;;;;4933382;28;45536;-83
2023/07/27 06:32:17;;;;;;;1.58;1.30;;;24.00;46.20;;;;;;4927004;28;45575;-83
2023/07/27 06:34:42;;;;;;;1.80;1.17;;;24.00;46.20;;;;;;4915783;28;48508;-84
2023/07/27 06:37:08;;;;;;;1.40;1.20;;;24.00;46.20;;;;;;4914119;28;45612;-82
2023/07/27 06:39:33;;;;;;;1.40;1.20;;;24.00;46.20;;;;;;4935469;28;45567;-83
2023/07/27 06:41:59;;;;;;;1.48;1.08;;;24.00;46.20;;;;;;4910171;28;45168;-82
2023/07/27 06:44:24;;;;;;;2.15;1.50;;;24.00;46.20;;;;;;4916835;28;47071;-81
2023/07/27 06:46:50;;;;;;;1.30;1.20;;;24.00;46.20;;;;;;4930478;28;45448;-83
2023/07/27 06:49:16;;;;;;;1.20;1.10;;;24.00;46.20;;;;;;4937777;28;45472;-82
2023/07/27 06:51:41;;;;;;;1.50;1.27;;;24.00;46.20;;;;;;4897543;28;45403;-80
2023/07/27 06:54:07;;;;;;;1.47;1.30;;;24.00;46.20;;;;;;4906050;28;46897;-82
2023/07/27 06:56:32;;;;;;;1.47;1.10;;;24.00;46.20;;;;;;4933767;28;45142;-81
2023/07/27 06:58:58;;;;;;;1.40;1.20;;;24.00;46.20;;;;;;4919849;28;44979;-82
2023/07/27 07:01:24;;;;;;;1.37;1.20;;;23.90;46.20;;;;;;4929779;28;45627;-81
2023/07/27 07:03:50;;;;;;;1.45;1.00;;;24.00;46.20;;;;;;4918497;28;47199;-83
2023/07/27 07:06:15;;;;;;;1.60;1.30;;;23.90;46.10;;;;;;4930747;28;45510;-80
2023/07/27 07:08:41;;;;;;;1.30;1.13;;;23.90;46.10;;;;;;4926915;28;45199;-82
2023/07/27 07:11:06;;;;;;;1.47;1.10;;;24.00;46.20;;;;;;4935353;28;45520;-83
2023/07/27 07:13:32;;;;;;;1.33;1.00;;;24.00;46.20;;;;;;4936459;28;45475;-81
2023/07/27 07:15:58;;;;;;;1.50;1.10;;;23.90;46.10;;;;;;4930645;28;45124;-80
2023/07/27 07:18:23;;;;;;;1.83;1.17;;;24.00;46.20;;;;;;4935924;28;45632;-82
2023/07/27 07:20:49;;;;;;;2.03;1.23;;;23.90;46.20;;;;;;4931315;28;45577;-82
2023/07/27 07:23:14;;;;;;;1.88;1.17;;;24.00;46.20;;;;;;4951926;28;45672;-81
2023/07/27 07:25:40;;;;;;;1.77;1.03;;;23.90;46.20;;;;;;4933007;28;44971;-81
2023/07/27 07:28:06;;;;;;;1.88;1.17;;;23.90;46.20;;;;;;4900842;28;45852;-82
2023/07/27 07:30:32;;;;;;;1.30;1.20;;;24.00;46.20;;;;;;4912941;28;45034;-82
2023/07/27 07:32:57;;;;;;;1.43;1.13;;;23.90;46.20;;;;;;4933944;28;46186;-82
2023/07/27 07:35:23;;;;;;;1.77;1.10;;;23.90;46.20;;;;;;4931487;28;45302;-81
2023/07/27 07:37:49;;;;;;;1.10;1.00;;;23.90;46.20;;;;;;4933345;28;46023;-82
2023/07/27 07:40:16;;;;;;;1.05;1.00;;;23.90;46.20;;;;;;4932471;28;45641;-83
2023/07/27 07:42:42;;;;;;;1.15;1.05;;;23.90;46.20;;;;;;4915708;28;47697;-84
2023/07/27 07:45:11;;;;;;;1.30;1.00;;;23.90;46.20;;;;;;4900427;28;45612;-85
2023/07/27 07:47:37;;;;;;;1.40;1.05;;;24.00;46.30;;;;;;4946112;28;45101;-81
2023/07/27 07:50:06;;;;;;;1.63;1.20;;;23.90;46.20;;;;;;4933760;28;45323;-84
2023/07/27 07:52:31;;;;;;;1.40;1.10;;;24.00;46.30;;;;;;4915431;28;46496;-83
2023/07/27 07:54:57;;;;;;;1.10;1.00;;;23.90;46.20;;;;;;4919840;28;45282;-80
2023/07/27 07:57:23;;;;;;;1.30;1.00;;;23.90;46.20;;;;;;4930773;28;45269;-84
2023/07/27 07:59:49;;;;;;;2.05;1.20;;;23.90;46.20;;;;;;4915815;28;45037;-81
2023/07/27 08:02:14;;;;;;;1.17;1.07;;;23.90;46.20;;;;;;4927846;28;47383;-84
2023/07/27 08:04:40;;;;;;;1.10;1.00;;;23.90;46.20;;;;;;4933025;28;45350;-82
2023/07/27 08:07:05;;;;;;;2.97;1.10;;;23.90;46.30;;;;;;4929303;28;45969;-82
2023/07/27 08:09:31;;;;;;;1.17;1.08;;;23.90;46.20;;;;;;4934633;28;45611;-81
2023/07/27 08:11:56;;;;;;;1.25;1.00;;;23.90;46.20;;;;;;4932219;28;45562;-81
2023/07/27 08:14:23;;;;;;;1.38;1.27;;;23.90;46.30;;;;;;4914172;28;45498;-81
2023/07/27 08:16:51;;;;;;;1.30;1.10;;;23.90;46.30;;;;;;4929480;28;59836;-80
2023/07/27 08:19:17;;;;;;;1.40;1.00;;;23.90;46.30;;;;;;4932854;28;45077;-81
2023/07/27 08:21:42;;;;;;;1.00;0.90;;;23.90;46.30;;;;;;4884875;28;47327;-79
2023/07/27 08:24:08;;;;;;;2.00;1.07;;;23.90;46.30;;;;;;4935515;28;45319;-82
2023/07/27 08:26:33;;;;;;;1.30;1.00;;;23.90;46.30;;;;;;4916456;28;45029;-80
2023/07/27 08:28:59;;;;;;;1.30;1.00;;;23.90;46.90;;;;;;4933899;28;45423;-81
2023/07/27 08:31:25;;;;;;;1.10;1.00;;;23.90;46.30;;;;;;4928427;28;46291;-82
2023/07/27 08:33:50;;;;;;;2.07;1.00;;;23.90;46.30;;;;;;4917380;28;45264;-82
2023/07/27 08:36:16;;;;;;;1.03;0.93;;;23.90;46.30;;;;;;4928690;28;45587;-81
2023/07/27 08:38:41;;;;;;;1.10;1.00;;;23.80;46.30;;;;;;4917601;28;45885;-81
2023/07/27 08:41:07;;;;;;;0.90;0.83;;;23.90;46.30;;;;;;4932158;28;45672;-81
2023/07/27 08:43:33;;;;;;;1.20;1.00;;;23.90;46.90;;;;;;4931327;28;45710;-81
2023/07/27 08:45:59;;;;;;;1.17;1.07;;;24.00;46.40;;;;;;4929512;28;45549;-82
2023/07/27 08:48:25;;;;;;;1.70;1.15;;;23.90;46.30;;;;;;4918153;28;45323;-83
2023/07/27 08:50:50;;;;;;;1.05;0.90;;;23.90;46.40;;;;;;4912387;28;47334;-82
2023/07/27 08:53:16;;;;;;;1.00;0.90;;;23.90;46.40;;;;;;4918619;28;45409;-82
2023/07/27 08:55:42;;;;;;;1.02;0.90;;;23.90;46.30;;;;;;4929234;28;45002;-83
2023/07/27 08:58:08;;;;;;;2.50;1.07;;;23.90;46.40;;;;;;4917946;28;45215;-82
2023/07/27 09:00:33;;;;;;;1.10;1.00;;;23.90;46.40;;;;;;4928409;28;46789;-81
2023/07/27 09:02:59;;;;;;;1.05;0.95;;;23.90;46.40;;;;;;4931449;28;45591;-82
2023/07/27 09:05:38;;;;;;;1.00;0.90;;;23.90;46.40;;;;;;4926688;28;45382;-82
2023/07/27 09:08:11;;;;;;;1.65;1.00;;;23.90;46.40;;;;;;4933488;28;45808;-82
2023/07/27 09:10:37;;;;;;;1.17;1.00;;;23.90;46.40;;;;;;4916246;28;46271;-80
2023/07/27 09:13:03;;;;;;;1.38;1.02;;;23.90;46.40;;;;;;4916029;28;45509;-81
2023/07/27 09:15:29;;;;;;;1.20;1.10;;;23.80;46.40;;;;;;4912982;28;45236;-83
2023/07/27 09:17:58;;;;;;;1.20;1.10;;;23.80;46.40;;;;;;4918687;28;45788;-82
2023/07/27 09:20:27;;;;;;;1.10;1.00;;;23.90;46.40;;;;;;4930068;28;46069;-80
2023/07/27 09:22:54;;;;;;;1.17;1.05;;;23.90;46.40;;;;;;4933490;28;45792;-81
2023/07/27 09:25:22;;;;;;;1.45;1.10;;;23.80;46.40;;;;;;4932031;28;45096;-83
2023/07/27 09:27:47;;;;;;;1.40;1.00;;;23.90;46.50;;;;;;4932253;28;44910;-82
2023/07/27 09:30:13;;;;;;;0.90;0.90;;;23.80;46.40;;;;;;4925473;28;46535;-86
2023/07/27 09:32:39;;;;;;;1.25;1.00;;;23.80;46.40;;;;;;4931012;28;45569;-81
2023/07/27 09:35:06;;;;;;;1.60;1.20;;;23.80;46.40;;;;;;4897143;28;45669;-88
2023/07/27 09:37:31;;;;;;;1.10;1.00;;;23.80;46.40;;;;;;4929799;28;45703;-80
2023/07/27 09:40:08;;;;;;;1.20;1.10;;;23.80;46.50;;;;;;4917746;28;47533;-83
2023/07/27 09:42:34;;;;;;;1.70;1.10;;;23.80;46.50;;;;;;4915084;28;45506;-80
2023/07/27 09:44:59;;;;;;;1.93;1.03;;;23.90;46.50;;;;;;4929352;28;44896;-83
2023/07/27 09:47:30;;;;;;;1.03;0.93;;;23.90;46.50;;;;;;4930962;28;45623;-80
2023/07/27 09:49:56;;;;;;;1.42;1.00;;;23.90;46.50;;;;;;4931279;28;48134;-83
2023/07/27 09:52:22;;;;;;;1.00;1.00;;;23.90;46.50;;;;;;4914655;28;45651;-81
2023/07/27 09:54:48;;;;;;;0.97;0.80;;;23.80;46.50;;;;;;4932659;28;44908;-81
2023/07/27 09:57:14;;;;;;;1.15;0.98;;;23.80;46.50;;;;;;4913579;28;45425;-81
2023/07/27 09:59:40;;;;;;;1.50;1.00;;;23.80;46.50;;;;;;4933288;28;47200;-82
2023/07/27 10:02:06;;;;;;;1.45;1.02;;;23.80;46.50;;;;;;4916865;28;45470;-84
2023/07/27 10:04:32;;;;;;;1.50;1.10;;;23.80;46.50;;;;;;4915101;28;45268;-80
2023/07/27 10:06:57;;;;;;;1.02;0.93;;;23.80;46.60;;;;;;4911106;28;44834;-82
2023/07/27 10:09:23;;;;;;;0.80;0.80;;;23.80;46.50;;;;;;4930849;28;47570;-79
2023/07/27 10:11:54;;;;;;;1.60;1.00;;;23.90;46.60;;;;;;4934641;28;45355;-81
2023/07/27 10:14:20;;;;;;;1.00;0.90;;;23.80;46.60;;;;;;4927343;28;45394;-80
2023/07/27 10:17:02;;;;;;;1.10;1.00;;;23.90;46.60;;;;;;4911408;28;45203;-81
2023/07/27 10:19:44;;;;;;;1.20;1.10;;;23.90;46.60;;;;;;4937874;28;47205;-80
2023/07/27 10:22:14;;;;;;;0.93;0.77;;;23.80;46.60;;;;;;4933428;28;45390;-81
2023/07/27 10:24:51;;;;;;;1.48;0.98;;;23.80;46.60;;;;;;4923284;28;44710;-80
2023/07/27 10:27:20;;;;;;;1.25;1.00;;;23.80;46.60;;;;;;4952477;28;45318;-79
2023/07/27 10:29:47;;;;;;;1.20;1.08;;;23.80;46.60;;;;;;4895161;28;47373;-80
2023/07/27 10:32:14;;;;;;;1.05;0.95;;;23.80;46.60;;;;;;4935418;28;45546;-80
2023/07/27 10:34:40;;;;;;;1.33;0.90;;;23.80;46.60;;;;;;4948063;28;44970;-84
2023/07/27 10:37:06;;;;;;;1.20;1.10;;;23.80;46.70;;;;;;4939317;28;45640;-80
2023/07/27 10:39:55;;;;;;;1.52;1.10;;;23.80;46.70;;;;;;4942098;28;46170;-85
2023/07/27 10:42:26;;;;;;;1.17;1.00;;;23.80;46.70;;;;;;4945172;28;45048;-81
2023/07/27 10:44:52;;;;;;;1.05;0.98;;;23.80;46.70;;;;;;4944351;28;45524;-81
2023/07/27 10:47:33;;;;;;;0.93;0.90;;;23.80;46.70;;;;;;4936091;28;44970;-85
2023/07/27 10:49:59;;;;;;;1.45;0.93;;;23.80;46.70;;;;;;4956414;28;45490;-82
2023/07/27 10:52:26;;;;;;;1.00;0.80;;;23.80;46.70;;;;;;4923811;28;45310;-81
2023/07/27 10:54:52;;;;;;;1.08;0.98;;;23.80;46.80;;;;;;4955012;28;45205;-86
2023/07/27 10:57:18;;;;;;;1.03;0.93;;;23.80;46.70;;;;;;4921430;28;44825;-79
2023/07/27 10:59:48;;;;;;;1.40;1.00;;;23.90;46.80;;;;;;4920412;28;47335;-81
2023/07/27 11:02:17;;;;;;;1.00;0.80;;;23.80;46.70;;;;;;4918838;28;45630;-81
2023/07/27 11:04:43;;;;;;;1.17;0.90;;;23.80;46.80;;;;;;4937087;28;44943;-79
2023/07/27 11:07:12;;;;;;;1.00;0.90;;;23.80;46.80;;;;;;4935267;28;44834;-81
2023/07/27 11:09:38;;;;;;;1.10;0.80;;;23.80;46.80;;;;;;4940188;28;45106;-81
2023/07/27 11:12:04;;;;;;;1.10;1.00;;;23.90;46.80;;;;;;4934674;28;45426;-80
2023/07/27 11:14:30;;;;;;;1.90;0.88;;;23.80;46.80;;;;;;4936518;28;46093;-83
2023/07/27 11:16:56;;;;;;;1.37;0.90;;;23.80;46.80;;;;;;4936634;28;45302;-80
2023/07/27 11:19:21;;;;;;;1.10;0.80;;;23.80;46.80;;;;;;4923495;28;45476;-84
2023/07/27 11:21:47;;;;;;;1.02;0.90;;;23.80;46.80;;;;;;4933503;28;45292;-85
2023/07/27 11:24:13;;;;;;;1.17;0.98;;;23.80;46.80;;;;;;4936081;28;45365;-85
2023/07/27 11:26:38;;;;;;;0.88;0.88;;;23.80;46.80;;;;;;4919925;28;45701;-80
2023/07/27 11:29:05;;;;;;;0.70;0.70;;;23.80;46.90;;;;;;4936201;28;45751;-81
2023/07/27 11:31:31;;;;;;;1.38;0.98;;;23.80;46.90;;;;;;4948150;28;45067;-83
2023/07/27 11:33:58;;;;;;;1.03;0.87;;;23.80;46.90;;;;;;4915779;28;46392;-83
2023/07/27 11:36:27;;;;;;;1.60;1.00;;;23.80;46.90;;;;;;4901363;28;45445;-81
2023/07/27 11:38:53;;;;;;;1.38;1.10;;;23.80;46.90;;;;;;4941372;28;46017;-85
2023/07/27 11:41:18;;;;;;;0.97;0.87;;;23.80;46.90;;;;;;4933114;28;45421;-81
2023/07/27 11:43:44;;;;;;;1.50;1.00;;;23.80;46.90;;;;;;4937483;28;44951;-82
2023/07/27 11:46:10;;;;;;;0.90;0.80;;;23.80;46.90;;;;;;4917063;28;44805;-84
2023/07/27 11:48:35;;;;;;;1.08;0.90;;;23.80;46.90;;;;;;4899954;28;46996;-80
2023/07/27 11:51:01;;;;;;;1.02;0.93;;;23.80;47.00;;;;;;4931268;28;45007;-80
2023/07/27 11:53:28;;;;;;;1.05;0.95;;;23.80;47.00;;;;;;4938486;28;45355;-81
2023/07/27 11:55:54;;;;;;;1.00;0.90;;;23.80;47.00;;;;;;4931292;28;45520;-88
2023/07/27 11:58:25;;;;;;;1.25;1.00;;;23.90;47.10;;;;;;4915538;28;45347;-82
2023/07/27 12:00:51;;;;;;;2.20;0.97;;;23.80;47.00;;;;;;4944941;28;45213;-84
2023/07/27 12:03:20;;;;;;;1.10;1.00;;;23.80;47.10;;;;;;4921807;28;44753;-87
2023/07/27 12:05:45;;;;;;;1.05;0.93;;;23.80;47.10;;;;;;4914086;28;45683;-83
2023/07/27 12:08:17;;;;;;;1.23;0.90;;;23.80;47.10;;;;;;4934293;28;45649;-82
2023/07/27 12:10:50;;;;;;;1.75;1.00;;;23.80;47.20;;;;;;4900388;28;45088;-81
2023/07/27 12:13:16;;;;;;;1.70;1.00;;;23.80;47.20;;;;;;4933193;28;45678;-82
2023/07/27 12:15:43;;;;;;;1.60;1.00;;;23.80;47.20;;;;;;4931516;28;45710;-81
2023/07/27 12:18:10;;;;;;;1.00;0.90;;;23.80;47.20;;;;;;4908742;28;45408;-81
2023/07/27 12:20:35;;;;;;;1.40;1.00;;;23.80;47.20;;;;;;4929656;28;45330;-82
2023/07/27 12:23:01;;;;;;;1.07;0.97;;;23.80;47.30;;;;;;4949991;28;45339;-83
2023/07/27 12:25:32;;;;;;;0.83;0.80;;;23.80;47.30;;;;;;4946426;28;45284;-81
2023/07/27 12:27:57;;;;;;;1.10;1.00;;;23.80;47.30;;;;;;4933093;28;46851;-83
2023/07/27 12:30:23;;;;;;;1.00;0.90;;;23.80;47.30;;;;;;4900624;28;45668;-82
2023/07/27 12:32:49;;;;;;;1.50;0.90;;;23.80;47.30;;;;;;4932482;28;45504;-80
2023/07/27 12:35:15;;;;;;;0.90;0.80;;;23.80;47.40;;;;;;4928434;28;45040;-80
2023/07/27 12:37:41;;;;;;;1.20;1.00;;;23.80;47.40;;;;;;4915924;28;45670;-81
2023/07/27 12:40:08;;;;;;;1.07;0.97;;;23.80;47.40;;;;;;4934084;28;45565;-86
2023/07/27 12:42:33;;;;;;;1.42;0.88;;;23.80;47.40;;;;;;4915189;28;45645;-82
2023/07/27 12:44:59;;;;;;;1.97;0.90;;;23.80;47.40;;;;;;4936116;28;45416;-82
2023/07/27 12:47:24;;;;;;;1.47;0.97;;;23.80;47.40;;;;;;4928425;28;46555;-82
2023/07/27 12:49:50;;;;;;;1.50;1.00;;;23.80;47.50;;;;;;4935317;28;45456;-80
2023/07/27 12:52:15;;;;;;;0.90;0.90;;;23.80;47.50;;;;;;4929497;28;45549;-82
2023/07/27 12:54:41;;;;;;;0.87;0.87;;;23.80;47.50;;;;;;4933999;28;45925;-84
2023/07/27 12:57:07;;;;;;;0.93;0.83;;;23.80;47.50;;;;;;4900051;28;48048;-83
2023/07/27 12:59:32;;;;;;;1.63;0.90;;;23.80;47.50;;;;;;4935996;28;45385;-81
2023/07/27 13:02:01;;;;;;;1.20;1.00;;;23.80;47.50;;;;;;4928837;28;45218;-81
2023/07/27 13:04:26;;;;;;;1.27;1.07;;;23.80;47.50;;;;;;4934801;28;45347;-82
2023/07/27 13:06:52;;;;;;;1.00;0.90;;;23.80;47.50;;;;;;4933635;28;45423;-82
2023/07/27 13:09:18;;;;;;;0.80;0.80;;;23.80;47.60;;;;;;4938964;28;45401;-81
2023/07/27 13:11:43;;;;;;;1.10;1.00;;;23.80;47.60;;;;;;4934280;28;45268;-82
2023/07/27 13:14:09;;;;;;;1.00;0.80;;;23.80;47.60;;;;;;4919968;28;45492;-80
2023/07/27 13:16:35;;;;;;;1.13;0.90;;;23.80;47.60;;;;;;4913253;28;48251;-84
2023/07/27 13:19:00;;;;;;;1.37;0.90;;;23.80;47.60;;;;;;4934389;28;45528;-85
2023/07/27 13:21:26;;;;;;;1.27;1.00;;;23.80;47.60;;;;;;4915128;28;44859;-80
2023/07/27 13:23:51;;;;;;;1.10;0.87;;;23.80;47.60;;;;;;4937238;28;44665;-81
2023/07/27 13:26:17;;;;;;;1.00;0.73;;;23.80;47.70;;;;;;4915492;28;47270;-82
2023/07/27 13:28:43;;;;;;;1.10;0.90;;;23.80;47.70;;;;;;4903225;28;45201;-81
2023/07/27 13:31:11;;;;;;;1.23;1.00;;;23.80;48.30;;;;;;4910952;28;45323;-84
2023/07/27 13:33:36;;;;;;;1.10;1.00;;;23.80;47.70;;;;;;4930580;28;44979;-84
2023/07/27 13:36:02;;;;;;;1.52;0.90;;;23.80;47.70;;;;;;4920048;28;47081;-84
2023/07/27 13:38:28;;;;;;;1.35;1.05;;;23.80;47.80;;;;;;4920867;28;46771;-81
2023/07/27 13:40:53;;;;;;;1.10;0.90;;;23.80;47.70;;;;;;4930762;28;45346;-80
2023/07/27 13:43:19;;;;;;;0.95;0.85;;;23.80;47.80;;;;;;4934836;28;44985;-82
2023/07/27 13:45:44;;;;;;;0.98;0.88;;;23.80;47.80;;;;;;4915767;28;47467;-83
2023/07/27 13:48:10;;;;;;;0.75;0.75;;;23.80;47.80;;;;;;4931219;28;44785;-83
2023/07/27 13:50:36;;;;;;;0.90;0.80;;;23.80;47.80;;;;;;4932457;28;44960;-82
2023/07/27 13:53:01;;;;;;;0.75;0.75;;;23.80;47.80;;;;;;4937550;28;45279;-81
2023/07/27 13:55:27;;;;;;;1.42;0.90;;;23.80;47.80;;;;;;4929537;28;45396;-86
2023/07/27 13:57:52;;;;;;;1.30;0.90;;;23.80;47.80;;;;;;4934756;28;46104;-81
2023/07/27 14:00:20;;;;;;;1.13;0.80;;;23.80;47.80;;;;;;4931929;28;45432;-81
2023/07/27 14:02:46;;;;;;;0.70;0.70;;;23.80;47.80;;;;;;4915240;28;45313;-82
2023/07/27 14:05:13;;;;;;;1.20;1.00;;;23.80;47.80;;;;;;4929625;28;47228;-81
2023/07/27 14:07:39;;;;;;;0.90;0.80;;;23.80;47.90;;;;;;4932800;28;45254;-84
2023/07/27 14:10:05;;;;;;;1.20;0.80;;;23.80;47.90;;;;;;4931314;28;45421;-87
2023/07/27 14:12:30;;;;;;;1.17;0.90;;;23.80;47.90;;;;;;4899361;28;45764;-81
2023/07/27 14:14:56;;;;;;;1.30;0.90;;;23.80;47.90;;;;;;4935400;28;47092;-81
2023/07/27 14:17:21;;;;;;;1.33;0.90;;;23.80;47.90;;;;;;4927361;28;45261;-81
2023/07/27 14:19:47;;;;;;;0.77;0.73;;;23.80;47.90;;;;;;4895792;28;45652;-82
2023/07/27 14:22:13;;;;;;;1.27;0.80;;;23.80;47.90;;;;;;4927283;28;45511;-86
2023/07/27 14:24:38;;;;;;;1.40;0.90;;;23.70;47.90;;;;;;4920472;28;47319;-82
2023/07/27 14:27:05;;;;;;;0.93;0.80;;;23.80;47.90;;;;;;4935021;28;45876;-87
2023/07/27 14:29:30;;;;;;;1.00;0.90;;;23.80;48.50;;;;;;4919466;28;45266;-83
2023/07/27 14:31:56;;;;;;;1.10;0.80;;;23.80;47.90;;;;;;4912591;28;46400;-80
2023/07/27 14:34:21;;;;;;;1.10;0.90;;;23.70;47.90;;;;;;4924723;28;46738;-82
2023/07/27 14:36:47;;;;;;;1.65;1.00;;;23.80;47.90;;;;;;4930250;28;44899;-82
2023/07/27 14:39:12;;;;;;;0.97;0.90;;;23.80;48.00;;;;;;4920886;28;45373;-80
2023/07/27 14:41:38;;;;;;;1.13;1.00;;;23.80;48.00;;;;;;4901802;28;45413;-82
2023/07/27 14:44:04;;;;;;;1.30;0.90;;;23.80;48.00;;;;;;4934736;28;45965;-83
2023/07/27 14:46:32;;;;;;;1.60;1.10;;;23.80;48.00;;;;;;4911092;28;45268;-84
2023/07/27 14:48:58;;;;;;;1.00;0.90;;;23.80;48.00;;;;;;4919557;28;44677;-84
2023/07/27 14:51:23;;;;;;;1.17;0.90;;;23.80;48.00;;;;;;4930515;28;45337;-82
2023/07/27 14:53:49;;;;;;;1.10;1.00;;;23.80;48.00;;;;;;4919319;28;48047;-80
2023/07/27 14:56:16;;;;;;;1.10;0.98;;;23.80;48.00;;;;;;4931508;28;47386;-82
2023/07/27 14:58:41;;;;;;;1.77;1.10;;;23.80;48.00;;;;;;4905634;28;46328;-81
2023/07/27 15:01:07;;;;;;;2.10;1.00;;;23.80;48.00;;;;;;4913500;28;45314;-90
2023/07/27 15:03:33;;;;;;;1.10;1.00;;;23.80;48.00;;;;;;4927803;28;46164;-83
2023/07/27 15:05:59;;;;;;;1.10;1.00;;;23.80;48.00;;;;;;4950720;28;45244;-83
2023/07/27 15:08:25;;;;;;;1.00;0.90;;;23.80;48.00;;;;;;4920980;28;44849;-83
2023/07/27 15:10:50;;;;;;;1.30;1.00;;;23.80;48.00;;;;;;4925861;28;45386;-81
2023/07/27 15:13:16;;;;;;;1.57;1.10;;;23.70;48.00;;;;;;4935708;28;46605;-81
2023/07/27 15:15:41;;;;;;;1.00;0.90;;;23.80;48.00;;;;;;4920888;28;45661;-80
2023/07/27 15:18:07;;;;;;;1.30;1.00;;;23.80;48.00;;;;;;4936849;28;45493;-82
2023/07/27 15:20:40;;;;;;;1.05;0.90;;;23.80;48.00;;;;;;4918769;28;45982;-85
2023/07/27 15:23:06;;;;;;;1.38;1.08;;;23.80;48.00;;;;;;4935128;28;46435;-82
2023/07/27 15:25:32;;;;;;;1.10;1.00;;;23.80;48.10;;;;;;4940453;28;45067;-84
2023/07/27 15:28:03;;;;;;;1.70;0.90;;;23.80;48.10;;;;;;4936466;28;45377;-82
2023/07/27 15:30:28;;;;;;;0.95;0.85;;;23.80;48.10;;;;;;4914859;28;45553;-85
2023/07/27 15:32:54;;;;;;;1.23;1.10;;;23.80;48.10;;;;;;4934161;28;46624;-82
2023/07/27 15:35:19;;;;;;;1.00;0.90;;;23.70;48.00;;;;;;4932559;28;45378;-83
2023/07/27 15:37:45;;;;;;;1.23;1.00;;;23.70;48.00;;;;;;4906578;28;45037;-80
2023/07/27 15:40:11;;;;;;;1.30;0.80;;;23.80;48.10;;;;;;4938309;28;45024;-83
2023/07/27 15:42:36;;;;;;;1.30;1.00;;;23.80;48.10;;;;;;4917516;28;46975;-83